Time;durP1;ratioP1;P1;durP2;ratioP2;P2;SDS_P1;SDS_P2;PMS_P1;PMS_P2;Temp;Humidity;BMP_temperature;BMP_pressure;BME280_temperature;BME280_humidity;BME280_pressure;Samples;Min_cycle;Max_cycle;Signal;HPM_P1;HPM_P2
2022/11/25 00:01:20;;;;;;;116.17;28.47;;;;;;;-0.96;100.00;99818.53;4192891;28;20373;-65
2022/11/25 00:03:47;;;;;;;126.43;31.27;;;;;;;-1.19;100.00;99816.38;4196602;28;20298;-67
2022/11/25 00:06:16;;;;;;;118.57;29.80;;;;;;;-0.97;100.00;99822.03;4199950;28;20713;-65
2022/11/25 00:08:44;;;;;;;130.00;29.90;;;;;;;-0.86;100.00;99827.50;4200022;28;20278;-66
2022/11/25 00:11:12;;;;;;;123.00;29.37;;;;;;;-0.87;100.00;99828.44;4201685;28;23973;-65
2022/11/25 00:13:39;;;;;;;114.60;27.80;;;;;;;-0.92;100.00;99825.22;4203614;28;21612;-65
2022/11/25 00:16:08;;;;;;;102.97;27.37;;;;;;;-0.88;100.00;99831.13;4214838;28;20425;-65
2022/11/25 00:18:35;;;;;;;109.37;28.87;;;;;;;-0.94;100.00;99832.31;4243633;28;20342;-64
2022/11/25 00:21:09;;;;;;;132.60;30.90;;;;;;;-0.93;100.00;99833.16;4203326;28;20585;-66
2022/11/25 00:23:36;;;;;;;112.83;29.77;;;;;;;-0.83;100.00;99836.09;4202919;28;20233;-64
2022/11/25 00:26:21;;;;;;;123.23;30.93;;;;;;;-0.89;100.00;99834.66;4206087;28;22250;-64
2022/11/25 00:28:49;;;;;;;122.27;29.90;;;;;;;-0.77;100.00;99838.34;4219547;28;20259;-69
2022/11/25 00:31:26;;;;;;;124.07;30.53;;;;;;;-0.74;100.00;99838.19;4202795;28;20312;-66
2022/11/25 00:33:53;;;;;;;140.27;31.40;;;;;;;-0.77;100.00;99838.34;4189950;28;20464;-66
2022/11/25 00:36:28;;;;;;;132.83;31.00;;;;;;;-0.79;100.00;99845.44;4200540;28;20578;-64
2022/11/25 00:38:56;;;;;;;153.87;33.50;;;;;;;-0.92;100.00;99840.06;4206884;28;21450;-65
2022/11/25 00:46:55;;;;;;;132.33;31.37;;;;;;;-0.73;100.00;99855.53;4211202;28;20422;-65
2022/11/25 00:49:22;;;;;;;139.93;29.63;;;;;;;-0.72;100.00;99846.78;4206269;28;23539;-67
2022/11/25 00:51:49;;;;;;;122.47;28.63;;;;;;;-0.80;100.00;99844.59;4201466;28;20234;-64
2022/11/25 00:54:15;;;;;;;122.13;28.87;;;;;;;-0.98;100.00;99843.88;4198156;28;20241;-64
2022/11/25 00:56:42;;;;;;;126.27;29.63;;;;;;;-1.01;100.00;99844.03;4201854;28;20240;-64
2022/11/25 00:59:08;;;;;;;134.13;30.33;;;;;;;-0.88;100.00;99842.41;4210704;28;20241;-66
2022/11/25 01:01:35;;;;;;;142.73;32.57;;;;;;;-0.89;100.00;99845.09;4225171;28;20260;-67
2022/11/25 01:04:03;;;;;;;129.77;29.20;;;;;;;-0.92;100.00;99848.72;4206590;28;25019;-64
2022/11/25 01:06:30;;;;;;;120.83;28.77;;;;;;;-0.83;100.00;99850.00;4200347;28;20260;-66
2022/11/25 01:08:57;;;;;;;121.73;28.63;;;;;;;-0.83;100.00;99843.94;4199340;28;20228;-67
2022/11/25 01:11:24;;;;;;;124.47;29.77;;;;;;;-0.84;100.00;99853.53;4195436;28;20300;-64
2022/11/25 01:13:53;;;;;;;118.67;27.20;;;;;;;-0.86;100.00;99856.22;4207346;28;21594;-64
2022/11/25 01:16:26;;;;;;;113.33;27.30;;;;;;;-0.76;100.00;99855.72;4193298;28;20233;-66
2022/11/25 01:18:53;;;;;;;108.33;27.03;;;;;;;-0.67;100.00;99860.41;4203004;28;21000;-64
2022/11/25 01:21:22;;;;;;;126.63;30.00;;;;;;;-0.57;100.00;99866.78;4205719;28;21575;-66
2022/11/25 01:23:50;;;;;;;134.57;30.70;;;;;;;-0.75;100.00;99860.00;4202936;28;20229;-65
2022/11/25 01:26:22;;;;;;;132.83;30.40;;;;;;;-0.93;100.00;99865.34;4199660;28;20232;-66
2022/11/25 01:28:52;;;;;;;144.47;31.60;;;;;;;-0.95;100.00;99867.19;4192801;28;20257;-64
2022/11/25 01:31:21;;;;;;;135.60;30.63;;;;;;;-1.09;100.00;99870.56;4213847;28;20321;-65
2022/11/25 01:33:53;;;;;;;132.97;30.07;;;;;;;-1.05;100.00;99876.47;4205759;28;28344;-64
2022/11/25 01:36:19;;;;;;;126.70;30.10;;;;;;;-1.04;100.00;99865.09;4205861;28;20233;-65
2022/11/25 01:38:49;;;;;;;140.60;30.37;;;;;;;-0.95;100.00;99868.97;4205461;28;20295;-64
2022/11/25 01:41:16;;;;;;;144.17;31.43;;;;;;;-0.86;100.00;99871.91;4196808;28;20798;-65
2022/11/25 01:43:42;;;;;;;156.77;32.90;;;;;;;-0.91;100.00;99867.88;4193384;28;20232;-68
2022/11/25 01:46:25;;;;;;;141.90;31.47;;;;;;;-1.07;100.00;99863.50;4200494;28;20313;-66
2022/11/25 01:48:55;;;;;;;153.27;32.97;;;;;;;-0.93;100.00;99860.13;4199967;28;20240;-66
2022/11/25 01:51:27;;;;;;;139.60;32.30;;;;;;;-0.75;100.00;99868.69;4198197;28;20240;-64
2022/11/25 01:53:56;;;;;;;152.67;33.87;;;;;;;-0.77;100.00;99865.31;4200508;28;21806;-64
2022/11/25 01:56:25;;;;;;;144.30;31.27;;;;;;;-0.83;100.00;99864.81;4204722;28;23394;-67
2022/11/25 01:58:51;;;;;;;150.80;33.30;;;;;;;-0.95;100.00;99869.81;4199412;28;21139;-66
2022/11/25 02:01:20;;;;;;;156.53;32.93;;;;;;;-0.93;100.00;99867.94;4197313;28;20244;-65
2022/11/25 02:03:50;;;;;;;134.30;30.67;;;;;;;-0.88;100.00;99868.53;4217418;28;26399;-65
2022/11/25 02:06:26;;;;;;;149.20;32.27;;;;;;;-0.83;100.00;99870.06;4207426;28;20482;-63
2022/11/25 02:08:55;;;;;;;138.97;31.47;;;;;;;-0.71;100.00;99877.19;4198830;28;22517;-66
2022/11/25 02:11:25;;;;;;;147.50;34.23;;;;;;;-0.71;100.00;99880.63;4203367;28;20367;-63
2022/11/25 02:13:52;;;;;;;145.23;31.73;;;;;;;-0.68;100.00;99885.69;4187833;28;20302;-64
2022/11/25 02:16:18;;;;;;;134.57;32.43;;;;;;;-0.60;100.00;99877.41;4207699;28;20263;-63
2022/11/25 02:18:45;;;;;;;152.17;31.63;;;;;;;-0.60;100.00;99877.41;4197114;28;20230;-63
2022/11/25 02:21:14;;;;;;;159.57;33.37;;;;;;;-0.62;100.00;99884.50;4197491;28;21967;-65
2022/11/25 02:23:51;;;;;;;151.90;33.43;;;;;;;-0.78;100.00;99875.84;4221189;28;20382;-66
2022/11/25 02:26:19;;;;;;;155.00;33.67;;;;;;;-0.79;100.00;99875.00;4186518;28;20727;-64
2022/11/25 02:28:46;;;;;;;132.43;30.50;;;;;;;-0.68;100.00;99879.63;4201751;28;20238;-65
2022/11/25 02:31:18;;;;;;;157.77;32.37;;;;;;;-0.98;100.00;99864.75;4204630;28;20239;-64
2022/11/25 02:33:44;;;;;;;164.53;31.97;;;;;;;-1.10;100.00;99870.66;4207480;28;22891;-66
2022/11/25 02:36:13;;;;;;;155.47;32.97;;;;;;;-0.89;100.00;99879.06;4202919;28;20252;-64
2022/11/25 02:38:48;;;;;;;139.53;32.33;;;;;;;-0.89;100.00;99874.69;4190035;28;20240;-67
2022/11/25 02:41:16;;;;;;;137.87;30.90;;;;;;;-0.95;100.00;99872.41;4205354;28;20236;-65
2022/11/25 02:43:42;;;;;;;148.10;33.13;;;;;;;-0.89;100.00;99877.31;4204836;28;20342;-64
2022/11/25 02:46:12;;;;;;;124.03;29.73;;;;;;;-0.74;100.00;99878.19;4200054;28;20593;-65
2022/11/25 02:48:46;;;;;;;137.40;30.53;;;;;;;-0.99;100.00;99878.72;4204780;28;20224;-64
2022/11/25 02:51:33;;;;;;;147.60;31.17;;;;;;;-0.98;100.00;99872.59;4206579;28;20242;-66
2022/11/25 02:54:00;;;;;;;156.93;33.53;;;;;;;-1.14;100.00;99885.66;4201938;28;20670;-64
2022/11/25 02:56:29;;;;;;;148.83;30.37;;;;;;;-1.04;100.00;99883.38;4202114;28;22677;-67
2022/11/25 02:58:56;;;;;;;136.40;31.13;;;;;;;-0.93;100.00;99883.63;4192958;28;21864;-65
2022/11/25 03:01:22;;;;;;;147.37;31.43;;;;;;;-1.06;100.00;99885.22;4201311;28;20263;-67
2022/11/25 03:03:49;;;;;;;127.80;29.83;;;;;;;-0.85;100.00;99884.03;4211153;28;21207;-67
2022/11/25 03:06:15;;;;;;;147.90;33.40;;;;;;;-1.16;100.00;99878.84;4198699;28;21746;-66
2022/11/25 03:08:42;;;;;;;128.57;29.57;;;;;;;-1.02;100.00;99891.13;4200325;28;20289;-65
2022/11/25 03:11:09;;;;;;;130.83;30.40;;;;;;;-0.97;100.00;99892.53;4191183;28;20560;-64
2022/11/25 03:13:35;;;;;;;128.47;30.53;;;;;;;-1.13;100.00;99887.31;4201340;28;20252;-66
2022/11/25 03:16:02;;;;;;;140.93;33.07;;;;;;;-1.04;100.00;99888.59;4200593;28;21427;-67
2022/11/25 03:18:29;;;;;;;127.83;32.40;;;;;;;-1.11;100.00;99890.69;4205523;28;20306;-63
2022/11/25 03:20:56;;;;;;;143.20;34.17;;;;;;;-1.05;100.00;99886.91;4200393;28;21677;-68
2022/11/25 03:23:23;;;;;;;139.20;30.50;;;;;;;-1.17;100.00;99885.81;4198766;28;22389;-65
2022/11/25 03:25:49;;;;;;;156.07;33.00;;;;;;;-1.21;100.00;99892.13;4216730;28;21156;-67
2022/11/25 03:28:16;;;;;;;158.37;34.63;;;;;;;-1.26;100.00;99894.16;4196603;28;20229;-64
2022/11/25 03:30:42;;;;;;;144.83;32.43;;;;;;;-1.32;100.00;99892.72;4214249;28;21976;-63
2022/11/25 03:33:09;;;;;;;143.50;32.77;;;;;;;-1.29;100.00;99896.91;4205450;28;20305;-65
2022/11/25 03:35:35;;;;;;;141.90;30.97;;;;;;;-1.06;100.00;99896.50;4214022;28;21806;-67
2022/11/25 03:38:02;;;;;;;151.27;32.50;;;;;;;-1.03;100.00;99898.13;4198722;28;20492;-66
2022/11/25 03:40:29;;;;;;;144.50;33.83;;;;;;;-1.09;100.00;99896.69;4200013;28;20872;-65
2022/11/25 03:42:55;;;;;;;140.93;32.70;;;;;;;-1.05;100.00;99907.81;4211239;28;21411;-65
2022/11/25 03:45:22;;;;;;;129.27;32.63;;;;;;;-1.07;100.00;99907.06;4211273;28;20414;-67
2022/11/25 03:47:49;;;;;;;150.70;34.70;;;;;;;-1.24;100.00;99901.88;4213043;28;20275;-64
2022/11/25 03:50:15;;;;;;;132.87;31.47;;;;;;;-1.10;100.00;99905.44;4207999;28;20235;-68
2022/11/25 03:52:42;;;;;;;144.40;33.93;;;;;;;-1.27;100.00;99903.72;4207227;28;20230;-65
2022/11/25 03:55:11;;;;;;;144.27;33.93;;;;;;;-1.32;100.00;99908.38;4210899;28;20924;-64
2022/11/25 03:57:38;;;;;;;158.13;36.27;;;;;;;-1.36;100.00;99906.00;4217564;28;20243;-65
2022/11/25 04:00:05;;;;;;;152.27;34.77;;;;;;;-1.37;100.00;99910.38;4216146;28;21267;-65
2022/11/25 04:02:32;;;;;;;143.10;35.30;;;;;;;-1.35;100.00;99910.31;4194984;28;20229;-66
2022/11/25 04:04:59;;;;;;;150.20;36.17;;;;;;;-1.44;100.00;99905.59;4222907;28;20317;-64
2022/11/25 04:07:26;;;;;;;150.27;34.83;;;;;;;-1.27;100.00;99915.94;4210152;28;20238;-65
2022/11/25 04:09:52;;;;;;;148.87;35.17;;;;;;;-1.12;100.00;99917.75;4198214;28;20250;-65
2022/11/25 04:15:04;;;;;;;135.37;34.83;;;;;;;-1.18;100.00;99922.44;4212768;28;20276;-65
2022/11/25 04:17:31;;;;;;;119.90;32.27;;;;;;;-1.19;100.00;99921.63;4207089;28;20240;-65
2022/11/25 04:19:57;;;;;;;152.30;35.10;;;;;;;-1.19;100.00;99928.63;4209874;28;23241;-64
2022/11/25 04:22:24;;;;;;;127.93;32.40;;;;;;;-1.07;100.00;99934.00;4201842;28;20232;-64
2022/11/25 04:24:50;;;;;;;146.07;34.07;;;;;;;-1.23;100.00;99925.31;4209886;28;20315;-66
2022/11/25 04:27:17;;;;;;;135.87;33.63;;;;;;;-1.16;100.00;99926.66;4223922;28;20258;-65
2022/11/25 04:29:45;;;;;;;144.10;35.23;;;;;;;-1.20;100.00;99934.75;4203464;28;22441;-62
2022/11/25 04:32:12;;;;;;;133.13;34.23;;;;;;;-1.02;100.00;99933.75;4199914;28;20257;-65
2022/11/25 04:34:39;;;;;;;149.70;34.73;;;;;;;-1.12;100.00;99930.78;4213715;28;20680;-65
2022/11/25 04:37:05;;;;;;;142.53;34.37;;;;;;;-0.99;100.00;99932.72;4192692;28;20237;-65
2022/11/25 04:39:32;;;;;;;146.53;35.50;;;;;;;-1.17;100.00;99940.66;4206023;28;20295;-66
2022/11/25 04:44:46;;;;;;;160.37;33.83;;;;;;;-1.12;100.00;99940.41;4219057;28;21938;-65
2022/11/25 04:47:35;;;;;;;150.13;34.73;;;;;;;-1.09;100.00;99946.28;4210636;28;20763;-67
2022/11/25 04:50:04;;;;;;;160.93;34.27;;;;;;;-0.99;100.00;99953.63;4205396;28;20233;-64
2022/11/25 04:52:30;;;;;;;144.33;34.20;;;;;;;-1.19;100.00;99955.56;4215119;28;20235;-64
2022/11/25 04:54:57;;;;;;;151.83;35.07;;;;;;;-1.29;100.00;99960.44;4207975;28;20249;-62
2022/11/25 04:57:24;;;;;;;162.93;36.80;;;;;;;-1.37;100.00;99962.59;4201096;28;25345;-66
2022/11/25 04:59:50;;;;;;;169.77;36.10;;;;;;;-1.31;100.00;99958.81;4206378;28;22418;-66
2022/11/25 05:02:26;;;;;;;161.67;35.43;;;;;;;-1.32;100.00;99955.34;4214116;28;20921;-65
2022/11/25 05:04:54;;;;;;;141.53;34.20;;;;;;;-1.17;100.00;99956.31;4206362;28;21272;-64
2022/11/25 05:07:22;;;;;;;133.77;33.67;;;;;;;-1.00;100.00;99957.19;4203482;28;20241;-65
2022/11/25 05:09:49;;;;;;;157.77;35.50;;;;;;;-1.01;100.00;99955.47;4206897;28;22478;-66
2022/11/25 05:12:18;;;;;;;154.77;34.53;;;;;;;-1.17;100.00;99958.94;4210107;28;20238;-68
2022/11/25 05:14:45;;;;;;;150.47;34.40;;;;;;;-1.37;100.00;99959.13;4207439;28;20303;-65
2022/11/25 05:17:14;;;;;;;139.83;32.80;;;;;;;-1.43;100.00;99955.06;4214701;28;20237;-64
2022/11/25 05:19:41;;;;;;;152.07;32.80;;;;;;;-1.20;100.00;99966.06;4199521;28;21764;-64
2022/11/25 05:22:16;;;;;;;167.73;36.60;;;;;;;-1.22;100.00;99960.06;4205599;28;21167;-66
2022/11/25 05:24:43;;;;;;;158.70;32.83;;;;;;;-1.24;100.00;99970.63;4198952;28;20240;-64
2022/11/25 05:27:10;;;;;;;150.97;32.27;;;;;;;-1.23;100.00;99971.47;4209950;28;21477;-65
2022/11/25 05:29:36;;;;;;;159.17;32.10;;;;;;;-1.23;100.00;99976.69;4206340;28;20233;-65
2022/11/25 05:32:04;;;;;;;161.57;33.50;;;;;;;-1.33;100.00;99974.56;4232026;28;20234;-66
2022/11/25 05:34:30;;;;;;;157.13;33.53;;;;;;;-1.39;100.00;99971.41;4232552;28;20234;-65
2022/11/25 05:36:57;;;;;;;173.60;33.17;;;;;;;-1.38;100.00;99976.56;4210400;28;21657;-65
2022/11/25 05:39:24;;;;;;;130.47;31.97;;;;;;;-1.26;100.00;99980.28;4205652;28;21213;-66
2022/11/25 05:41:50;;;;;;;149.13;33.00;;;;;;;-1.26;100.00;99982.91;4208994;28;20477;-67
2022/11/25 05:44:17;;;;;;;165.03;32.23;;;;;;;-1.32;100.00;99984.06;4203171;28;20229;-64
2022/11/25 05:46:49;;;;;;;141.57;30.97;;;;;;;-1.21;100.00;99980.91;4205577;28;20410;-64
2022/11/25 05:49:16;;;;;;;142.33;30.87;;;;;;;-1.28;100.00;99980.38;4207333;28;21143;-65
2022/11/25 05:51:44;;;;;;;173.60;32.63;;;;;;;-1.36;100.00;99985.16;4197329;28;20390;-68
2022/11/25 05:54:10;;;;;;;134.00;32.27;;;;;;;-1.40;100.00;99986.25;4201372;28;20233;-69
2022/11/25 05:56:37;;;;;;;144.37;32.87;;;;;;;-1.29;100.00;99983.06;4187987;28;21214;-65
2022/11/25 05:59:04;;;;;;;152.37;32.80;;;;;;;-1.13;100.00;99981.31;4197920;28;20309;-64
2022/11/25 06:01:31;;;;;;;141.90;32.10;;;;;;;-1.07;100.00;99988.81;4198862;28;20300;-64
2022/11/25 06:03:59;;;;;;;137.83;31.17;;;;;;;-1.10;100.00;99988.13;4210263;28;20263;-64
2022/11/25 06:06:26;;;;;;;138.77;29.70;;;;;;;-1.10;100.00;99995.97;4217843;28;20232;-65
2022/11/25 06:08:52;;;;;;;131.37;32.87;;;;;;;-0.95;100.00;99991.72;4206062;28;20738;-66
2022/11/25 06:11:19;;;;;;;139.47;30.23;;;;;;;-1.08;100.00;100002.81;4209673;28;20229;-66
2022/11/25 06:13:45;;;;;;;129.73;31.97;;;;;;;-1.18;100.00;100006.00;4223228;28;21514;-66
2022/11/25 06:16:17;;;;;;;129.00;30.17;;;;;;;-1.12;100.00;100000.44;4206147;28;20245;-68
2022/11/25 06:18:44;;;;;;;118.80;29.00;;;;;;;-1.17;100.00;99997.22;4212491;28;21288;-66
2022/11/25 06:21:11;;;;;;;128.43;31.73;;;;;;;-1.20;100.00;100002.63;4224895;28;20339;-64
2022/11/25 06:23:38;;;;;;;146.07;34.10;;;;;;;-1.34;100.00;99991.13;4215445;28;21671;-66
2022/11/25 06:26:12;;;;;;;153.40;33.07;;;;;;;-1.11;100.00;100004.75;4217990;28;21788;-66
2022/11/25 06:28:39;;;;;;;155.97;34.67;;;;;;;-1.14;100.00;100004.91;4229601;28;20609;-63
2022/11/25 06:31:07;;;;;;;157.07;34.20;;;;;;;-1.15;100.00;100000.59;4214076;28;22811;-68
2022/11/25 06:33:34;;;;;;;144.13;34.30;;;;;;;-1.18;100.00;100006.00;4222488;28;21163;-63
2022/11/25 06:36:02;;;;;;;138.77;32.20;;;;;;;-1.16;100.00;100006.75;4212955;28;20500;-65
2022/11/25 06:38:29;;;;;;;145.77;33.20;;;;;;;-1.07;100.00;100003.66;4228844;28;20228;-69
2022/11/25 06:41:00;;;;;;;130.57;32.83;;;;;;;-0.98;100.00;100005.78;4238501;28;22852;-67
2022/11/25 06:43:27;;;;;;;147.17;32.70;;;;;;;-1.02;100.00;100004.25;4216725;28;20300;-69
2022/11/25 06:45:54;;;;;;;131.03;31.80;;;;;;;-1.08;100.00;100007.19;4205480;28;22280;-64
2022/11/25 06:48:20;;;;;;;130.63;31.57;;;;;;;-1.09;100.00;100006.34;4248119;28;20231;-68
2022/11/25 06:50:55;;;;;;;134.00;33.00;;;;;;;-0.86;100.00;100015.56;4240646;28;25559;-66
2022/11/25 06:53:22;;;;;;;134.83;32.20;;;;;;;-0.94;100.00;100014.28;4208992;28;20364;-70
2022/11/25 06:56:04;;;;;;;137.90;33.13;;;;;;;-1.06;100.00;100015.78;4215237;28;21320;-66
2022/11/25 06:58:30;;;;;;;146.87;33.43;;;;;;;-1.19;100.00;100017.38;4198986;28;21333;-66
2022/11/25 07:01:04;;;;;;;147.87;32.83;;;;;;;-1.15;100.00;100018.88;4205097;28;20229;-71
2022/11/25 07:03:31;;;;;;;153.57;34.97;;;;;;;-1.13;100.00;100025.69;4204982;28;20229;-68
2022/11/25 07:05:58;;;;;;;155.07;34.23;;;;;;;-1.11;100.00;100020.41;4205297;28;20242;-67
2022/11/25 07:08:25;;;;;;;156.73;35.67;;;;;;;-1.08;100.00;100020.22;4203039;28;20229;-66
2022/11/25 07:11:11;;;;;;;143.53;33.10;;;;;;;-0.93;100.00;100029.88;4202428;28;25644;-66
2022/11/25 07:13:38;;;;;;;148.40;34.27;;;;;;;-0.96;100.00;100027.44;4201343;28;20233;-65
2022/11/25 07:16:05;;;;;;;152.50;35.40;;;;;;;-0.86;100.00;100026.00;4206896;28;23083;-65
2022/11/25 07:18:34;;;;;;;151.10;35.83;;;;;;;-0.93;100.00;100029.88;4203115;28;20232;-69
2022/11/25 07:21:12;;;;;;;161.93;34.83;;;;;;;-0.94;100.00;100035.16;4211282;28;25578;-66
2022/11/25 07:23:39;;;;;;;145.97;33.40;;;;;;;-0.81;100.00;100036.22;4203705;28;20239;-66
2022/11/25 07:26:09;;;;;;;145.67;34.73;;;;;;;-0.72;100.00;100034.88;4190109;28;20229;-64
2022/11/25 07:28:36;;;;;;;131.43;31.93;;;;;;;-0.77;100.00;100031.66;4212683;28;20225;-67
2022/11/25 07:31:11;;;;;;;141.37;33.97;;;;;;;-0.57;100.00;100031.41;4210822;28;23644;-67
2022/11/25 07:34:00;;;;;;;145.57;35.00;;;;;;;-0.57;100.00;100039.25;4210981;28;20246;-65
2022/11/25 07:36:28;;;;;;;145.03;34.57;;;;;;;-0.74;100.00;100036.72;4213958;28;21704;-69
2022/11/25 07:38:57;;;;;;;136.80;31.93;;;;;;;-0.73;100.00;100043.63;4206040;28;20299;-65
2022/11/25 07:41:25;;;;;;;147.97;33.23;;;;;;;-0.71;100.00;100041.78;4201949;28;20248;-67
2022/11/25 07:43:54;;;;;;;154.17;36.27;;;;;;;-0.82;100.00;100039.75;4231564;28;20241;-66
2022/11/25 07:46:38;;;;;;;132.90;32.63;;;;;;;-0.60;100.00;100049.03;4220207;28;25875;-63
2022/11/25 07:49:07;;;;;;;149.03;35.00;;;;;;;-0.56;100.00;100043.56;4222578;28;20241;-67
2022/11/25 07:51:37;;;;;;;144.83;34.40;;;;;;;-0.64;100.00;100041.34;4214780;28;21678;-65
2022/11/25 07:54:06;;;;;;;125.53;31.67;;;;;;;-0.47;100.00;100048.28;4207672;28;20311;-69
2022/11/25 07:56:35;;;;;;;147.13;33.50;;;;;;;-0.51;100.00;100046.78;4222798;28;20411;-68
2022/11/25 07:59:02;;;;;;;149.20;35.93;;;;;;;-0.51;100.00;100049.38;4247756;28;20315;-68
2022/11/25 08:01:29;;;;;;;139.73;33.30;;;;;;;-0.51;100.00;100054.59;4210865;28;20228;-69
2022/11/25 08:03:55;;;;;;;134.50;32.27;;;;;;;-0.37;100.00;100060.84;4230661;28;20233;-68
2022/11/25 08:06:27;;;;;;;135.33;33.97;;;;;;;-0.32;100.00;100057.06;4229414;28;20280;-68
2022/11/25 08:08:55;;;;;;;142.93;34.87;;;;;;;-0.52;100.00;100058.13;4227364;28;20542;-70
2022/11/25 08:11:25;;;;;;;146.33;34.70;;;;;;;-0.56;100.00;100058.38;4205754;28;20229;-67
2022/11/25 08:13:51;;;;;;;143.77;34.30;;;;;;;-0.66;100.00;100064.13;4209884;28;20255;-67
2022/11/25 08:16:19;;;;;;;144.73;34.47;;;;;;;-0.52;100.00;100072.97;4208818;28;21573;-69
2022/11/25 08:18:47;;;;;;;147.70;35.70;;;;;;;-0.48;100.00;100070.13;4203557;28;20293;-67
2022/11/25 08:21:14;;;;;;;137.43;34.00;;;;;;;-0.30;100.00;100067.44;4217938;28;20348;-69
2022/11/25 08:23:42;;;;;;;145.80;34.97;;;;;;;-0.56;100.00;100072.31;4205802;28;20340;-67
2022/11/25 08:26:12;;;;;;;157.23;37.17;;;;;;;-0.52;100.00;100072.97;4201577;28;20410;-70
2022/11/25 08:28:43;;;;;;;130.73;34.33;;;;;;;-0.28;100.00;100065.53;4204674;28;20421;-66
2022/11/25 08:31:15;;;;;;;143.80;33.70;;;;;;;-0.33;100.00;100075.41;4214054;28;20646;-66
2022/11/25 08:33:42;;;;;;;146.60;35.27;;;;;;;-0.22;100.00;100073.91;4205272;28;21020;-69
2022/11/25 08:36:10;;;;;;;149.77;34.90;;;;;;;-0.30;100.00;100067.44;4208642;28;21486;-69
2022/11/25 08:38:36;;;;;;;139.53;32.10;;;;;;;-0.14;100.00;100072.63;4223719;28;21231;-67
2022/11/25 08:41:08;;;;;;;137.87;32.80;;;;;;;-0.02;100.00;100082.44;4203823;28;22022;-66
2022/11/25 08:43:34;;;;;;;137.23;34.20;;;;;;;-0.07;100.00;100074.84;4204223;28;20790;-67
2022/11/25 08:46:07;;;;;;;121.30;33.47;;;;;;;0.09;100.00;100087.03;4188571;28;22896;-67
2022/11/25 08:48:34;;;;;;;140.27;34.23;;;;;;;0.16;100.00;100086.63;4210101;28;20255;-66
2022/11/25 08:51:00;;;;;;;128.50;32.07;;;;;;;0.07;100.00;100089.75;4205183;28;21608;-67
2022/11/25 08:53:27;;;;;;;140.30;34.63;;;;;;;-0.01;100.00;100094.56;4205908;28;20235;-68
2022/11/25 08:55:54;;;;;;;134.97;33.53;;;;;;;0.01;100.00;100097.09;4206878;28;20236;-66
2022/11/25 08:58:20;;;;;;;141.30;35.60;;;;;;;0.03;100.00;100090.00;4201290;28;23576;-68
2022/11/25 09:00:47;;;;;;;138.73;33.57;;;;;;;-0.08;100.00;100098.44;4204652;28;20300;-67
2022/11/25 09:03:13;;;;;;;123.20;32.40;;;;;;;0.13;100.00;100099.03;4207547;28;22840;-69
2022/11/25 09:05:41;;;;;;;120.37;32.80;;;;;;;0.16;100.00;100101.44;4208393;28;21454;-68
2022/11/25 09:08:08;;;;;;;121.70;32.43;;;;;;;0.14;100.00;100098.06;4202405;28;20978;-66
2022/11/25 09:10:36;;;;;;;121.83;33.47;;;;;;;0.23;100.00;100105.41;4193572;28;20305;-67
2022/11/25 09:13:03;;;;;;;129.63;31.27;;;;;;;0.11;100.00;100104.31;4216309;28;24044;-66
2022/11/25 09:15:30;;;;;;;115.10;31.17;;;;;;;0.15;100.00;100099.78;4212543;28;20354;-65
2022/11/25 09:17:59;;;;;;;125.80;33.60;;;;;;;0.11;100.00;100096.47;4211864;28;20312;-67
2022/11/25 09:20:26;;;;;;;121.23;32.37;;;;;;;0.02;100.00;100099.59;4213501;28;21028;-66
2022/11/25 09:22:53;;;;;;;112.57;31.00;;;;;;;0.24;100.00;100094.03;4200773;28;25929;-69
2022/11/25 09:25:21;;;;;;;118.27;32.27;;;;;;;0.32;100.00;100093.56;4214040;28;20318;-67
2022/11/25 09:27:47;;;;;;;119.73;33.23;;;;;;;0.17;100.00;100098.75;4206286;28;20228;-66
2022/11/25 09:30:14;;;;;;;126.67;33.00;;;;;;;0.08;100.00;100101.91;4207810;28;20334;-67
2022/11/25 09:32:41;;;;;;;114.60;32.20;;;;;;;0.28;100.00;100099.91;4214134;28;23035;-69
2022/11/25 09:35:09;;;;;;;120.33;31.80;;;;;;;0.35;100.00;100096.88;4222677;28;20229;-67
2022/11/25 09:37:35;;;;;;;116.60;32.60;;;;;;;0.13;100.00;100099.03;4221255;28;20240;-68
2022/11/25 09:40:02;;;;;;;117.00;33.03;;;;;;;0.09;100.00;100100.13;4216934;28;20290;-70
2022/11/25 09:48:59;;;;;;;108.63;31.73;;;;;;;0.46;100.00;100108.50;4225009;28;20247;-67
2022/11/25 09:51:36;;;;;;;109.80;30.90;;;;;;;0.43;100.00;100104.28;4202753;28;20237;-65
2022/11/25 09:54:12;;;;;;;118.97;33.63;;;;;;;0.43;100.00;100108.69;4192418;28;20325;-66
2022/11/25 09:56:47;;;;;;;109.00;32.57;;;;;;;0.48;100.00;100106.63;4193797;28;25666;-67
2022/11/25 09:59:17;;;;;;;124.33;34.33;;;;;;;0.37;100.00;100105.44;4294627;28;20236;-68
2022/11/25 10:01:58;;;;;;;116.43;35.57;;;;;;;0.47;100.00;100099.69;4199891;28;21272;-68
2022/11/25 10:04:49;;;;;;;118.07;34.47;;;;;;;0.55;100.00;100107.97;4208062;28;21666;-66
2022/11/25 10:07:23;;;;;;;116.27;35.53;;;;;;;0.59;100.00;100112.94;4217756;28;20236;-70
2022/11/25 10:09:50;;;;;;;117.27;36.00;;;;;;;0.55;100.00;100113.19;4197703;28;20269;-67
2022/11/25 10:12:45;;;;;;;107.27;33.10;;;;;;;0.59;100.00;100114.72;4200603;28;20224;-65
2022/11/25 10:15:24;;;;;;;108.47;33.77;;;;;;;0.52;100.00;100108.16;4194526;28;20229;-65
2022/11/25 10:17:54;;;;;;;112.37;36.00;;;;;;;0.60;100.00;100117.22;4200972;28;20236;-67
2022/11/25 10:20:23;;;;;;;118.80;33.80;;;;;;;0.57;100.00;100120.03;4208177;28;21301;-67
2022/11/25 10:22:55;;;;;;;103.30;33.60;;;;;;;0.57;100.00;100121.81;4201255;28;20233;-66
2022/11/25 10:25:24;;;;;;;118.20;34.03;;;;;;;0.55;100.00;100121.88;4202905;28;20348;-69
2022/11/25 10:28:01;;;;;;;114.30;34.43;;;;;;;0.59;100.00;100120.78;4207749;28;20237;-65
2022/11/25 10:30:38;;;;;;;106.07;33.23;;;;;;;0.58;100.00;100115.63;4197525;28;20228;-65
2022/11/25 10:33:19;;;;;;;99.80;32.73;;;;;;;0.56;100.00;100126.22;4208519;28;21633;-70
2022/11/25 10:35:48;;;;;;;102.30;32.63;;;;;;;0.65;100.00;100124.81;4216437;28;20335;-68
2022/11/25 10:38:19;;;;;;;108.47;32.37;;;;;;;0.69;100.00;100123.69;4208475;28;23054;-69
2022/11/25 10:40:47;;;;;;;99.57;31.90;;;;;;;0.70;100.00;100127.16;4191863;28;20232;-71
2022/11/25 10:43:14;;;;;;;101.00;32.07;;;;;;;0.79;100.00;100126.63;4210857;28;21651;-69
2022/11/25 10:45:56;;;;;;;108.50;33.73;;;;;;;0.86;100.00;100133.19;4229910;28;21822;-70
2022/11/25 10:49:14;;;;;;;99.60;32.67;;;;;;;0.83;100.00;100128.97;4192461;28;20272;-67
2022/11/25 10:51:49;;;;;;;115.23;34.17;;;;;;;0.88;100.00;100130.47;4229162;28;22352;-65
2022/11/25 10:54:18;;;;;;;105.27;33.07;;;;;;;0.73;100.00;100137.47;4204072;28;20233;-70
2022/11/25 10:57:03;;;;;;;115.77;35.57;;;;;;;0.84;100.00;100135.91;4191828;28;20239;-72
2022/11/25 10:59:35;;;;;;;102.27;32.50;;;;;;;0.94;100.00;100135.38;4201288;28;20385;-69
2022/11/25 11:02:14;;;;;;;98.67;31.53;;;;;;;0.95;100.00;100137.03;4220146;28;20235;-68
2022/11/25 11:04:56;;;;;;;105.20;32.60;;;;;;;0.94;100.00;100136.22;4205254;28;20239;-70
2022/11/25 11:07:24;;;;;;;101.77;31.63;;;;;;;0.78;100.00;100131.03;4297036;28;20237;-70
2022/11/25 11:10:06;;;;;;;100.73;30.50;;;;;;;0.83;100.00;100133.38;4268649;28;20263;-70
2022/11/25 11:12:32;;;;;;;93.53;29.97;;;;;;;0.79;100.00;100137.09;4208288;28;20719;-73
2022/11/25 11:15:20;;;;;;;100.00;29.83;;;;;;;0.84;100.00;100137.66;4211777;28;21822;-69
2022/11/25 11:17:47;;;;;;;100.07;29.63;;;;;;;0.89;100.00;100137.38;4206714;28;22349;-70
2022/11/25 11:20:20;;;;;;;89.00;27.73;;;;;;;0.91;100.00;100135.53;4206633;28;20724;-70
2022/11/25 11:22:53;;;;;;;83.50;27.90;;;;;;;0.95;100.00;100139.66;4214822;28;20249;-70
2022/11/25 11:25:20;;;;;;;93.40;29.43;;;;;;;0.85;100.00;100136.75;4203477;28;20246;-69
2022/11/25 11:27:47;;;;;;;88.30;28.13;;;;;;;0.86;100.00;100137.59;4202505;28;20233;-69